Coral Princess — ZCDF4 — position and weather

sailwx.info

Track history (hours):
 
Tides and Currents Weather Stations Pressure Air Temp Water Temp Dewpoint Dewpoint Depression Visibility Wind Speed Wind Dir Waves Ship Positions

Coral Princess

Operator: Princess Cruises

Last reported at 2017-May-28 06:29 UTC. Time now 2017-May-28 06:42 UTC.
Position N 49°29' W 124°28'.

Type: Passenger vessel. MMSI: 310376000.

Date/timePositionNaut miles runAvg speedWind from/ knotsBaromVisibWave heightAir tempDewpointWater temp
2017-May-28 06:29N 49°29' W 124°28'1920.2
2017-May-28 05:33N 49°23' W 124°00'120.4
2017-May-28 05:30N 49°23' W 123°58'1020.7
2017-May-28 05:00N 49°21' W 123°43'1020.4
2017-May-28 04:30N 49°19' W 123°28'918.6
2017-May-28 04:00N 49°19' W 123°14'510.3
2017-May-28 03:31N 49°18' W 123°06'0 0.5
2017-May-28 02:59N 49°17' W 123°06'0 0.0
2017-May-28 02:29N 49°17' W 123°06'0 0.0
2017-May-28 01:59N 49°17' W 123°06'0 0.0
2017-May-28 01:29N 49°17' W 123°06'0 0.0
2017-May-28 00:59N 49°17' W 123°06'0 0.0
2017-May-28 00:29N 49°17' W 123°06'0 0.0
2017-May-27 23:59N 49°17' W 123°06'0 0.0
2017-May-27 23:29N 49°17' W 123°06'0 0.0
2017-May-27 22:59N 49°17' W 123°06'0 0.0
2017-May-27 22:29N 49°17' W 123°06'0 0.0
2017-May-27 21:59N 49°17' W 123°06'0 0.0
2017-May-27 21:29N 49°17' W 123°06'0 0.0
2017-May-27 20:59N 49°17' W 123°06'0 0.0
2017-May-27 20:29N 49°17' W 123°06'0 0.0
2017-May-27 19:59N 49°17' W 123°06'0 0.0
2017-May-27 19:29N 49°17' W 123°06'0 0.0
2017-May-27 18:56N 49°17' W 123°06'0 0.0
2017-May-27 18:17N 49°17' W 123°06'0 0.0
2017-May-27 17:59N 49°17' W 123°06'0 0.0
2017-May-27 17:29N 49°17' W 123°06'0 0.0
2017-May-27 16:59N 49°17' W 123°06'0 0.0
2017-May-27 16:29N 49°17' W 123°06'0 0.0
2017-May-27 15:59N 49°17' W 123°06'0 0.0
2017-May-27 15:29N 49°17' W 123°06'0 0.0
2017-May-27 14:59N 49°17' W 123°06'0 0.0
2017-May-27 14:29N 49°17' W 123°06'0 0.0
2017-May-27 13:29N 49°17' W 123°06'0 0.0
2017-May-27 13:00N 49°17' W 123°06'0 0.9
2017-May-27 12:30N 49°18' W 123°06'4 7.3
2017-May-27 12:00N 49°19' W 123°12'510.2
2017-May-27 11:30N 49°18' W 123°19'510.1
2017-May-27 11:00N 49°15' W 123°26'6920706.8
2017-May-27 11:00N 49°18' W 125°12'65134.4 040 / 91020.427.0 9.0 6.9 9.0
2017-May-27 10:30N 49°12' W 123°33'510.1
2017-May-27 10:00N 49°13' W 123°40'5 9.8
2017-May-27 09:30N 49°15' W 123°47'510.4
2017-May-27 09:00N 49°18' W 123°54'510.8
2017-May-27 08:30N 49°20' W 124°01'510.8
2017-May-27 08:00N 49°23' W 124°09'510.8
2017-May-27 07:30N 49°25' W 124°16'510.7
2017-May-27 07:00N 49°27' W 124°24'510.7
2017-May-27 06:30N 49°30' W 124°30'510.8
2017-May-27 06:00N 49°34' W 124°36'511.0
2017-May-27 05:30N 49°38' W 124°41'510.8
2017-May-27 05:00N 49°42' W 124°47'510.4
2017-May-27 04:30N 49°46' W 124°53'510.2
2017-May-27 04:00N 49°50' W 124°58'510.4
2017-May-27 03:30N 49°54' W 125°04'610.9
2017-May-27 03:00N 49°57' W 125°10'517314.2
2017-May-27 03:00N 50°48' W 125°18'4694.7 310 / 281018.127.0 9.5 6.3 9.0
2017-May-27 02:30N 50°02' W 125°13'612.6
2017-May-27 02:00N 50°07' W 125°19'611.3
2017-May-27 01:31N 50°12' W 125°22'815.4
2017-May-27 00:58N 50°20' W 125°26'915.3
2017-May-27 00:24N 50°22' W 125°40'1717.6
2017-May-26 23:26N 50°27' W 126°05'3014.9
2017-May-26 21:24N 50°39' W 126°49'3217.6
2017-May-26 19:35N 50°52' W 127°35'117.2
2017-May-26 19:30N 50°53' W 127°37'816.9
2017-May-26 19:00N 50°59' W 127°47'714.0
2017-May-26 18:31N 51°02' W 127°56'816.3
2017-May-26 18:01N 51°07' W 128°07'816.7
2017-May-26 17:31N 51°12' W 128°18'816.3
2017-May-26 17:01N 51°17' W 128°28'816.2
2017-May-26 16:31N 51°21' W 128°39'816.0
2017-May-26 16:00N 51°27' W 128°48'815.5
2017-May-26 15:30N 51°33' W 128°55'815.6
2017-May-26 15:01N 51°40' W 129°02'816.1
2017-May-26 14:30N 51°46' W 129°10'1817.8
2017-May-26 13:30N 52°01' W 129°26'5716.1
2017-May-26 10:00N 52°48' W 130°18'   310 / 281017.610.8 9.0 8.0 9.0
2017-May-23 12:00N 59°36' W 136°18'60 6.0 180 / 48999.510.8 7.5 6.4 7.0
2017-May-23 02:00N 58°36' W 136°06'20014.3 180 / 481000.210.8 7.5 7.5 7.0
2017-May-22 12:00N 58°30' W 142°30'60 3.2 080 / 48999.5 5.4 7.5 7.5 7.0
2017-May-21 17:00N 59°30' W 142°18'9315.5 080 / 48999.8 5.4 9.0 6.9 7.0
2017-May-21 11:00N 59°48' W 145°18'6020.0 080 / 371001.1 5.4 8.0 8.0 7.0
2017-May-21 08:00N 60°24' W 146°54'56 2.1 280 / 121015.110.8 7.0 5.9 9.0
2017-May-20 05:00N 60°54' W 148°30'28012.7 180 / 51015.810.8 7.0 4.7 7.0
2017-May-19 07:00N 58°42' W 140°18'128 8.0 200 / 121018.7 5.4 7.0 4.7 8.0
2017-May-18 15:00N 58°42' W 136°12'   170 / 191017.310.8 9.0 6.4 6.2
Track history (hours):
 
Tides and Currents Weather Stations Pressure Air Temp Water Temp Dewpoint Dewpoint Depression Visibility Wind Speed Wind Dir Waves Ship Positions

Coral Princess

Operator: Princess Cruises

Last reported at 2017-May-28 06:29 UTC. Time now 2017-May-28 06:42 UTC.
Position N 49°29' W 124°28'.

Type: Passenger vessel. MMSI: 310376000.

Date/timePositionNaut miles runAvg speedWind from/ knotsBaromVisibWave heightAir tempDewpointWater temp
2017-May-28 06:29N 49°29' W 124°28'1920.2
2017-May-28 05:33N 49°23' W 124°00'120.4
2017-May-28 05:30N 49°23' W 123°58'1020.7
2017-May-28 05:00N 49°21' W 123°43'1020.4
2017-May-28 04:30N 49°19' W 123°28'918.6
2017-May-28 04:00N 49°19' W 123°14'510.3
2017-May-28 03:31N 49°18' W 123°06'0 0.5
2017-May-28 02:59N 49°17' W 123°06'0 0.0
2017-May-28 02:29N 49°17' W 123°06'0 0.0
2017-May-28 01:59N 49°17' W 123°06'0 0.0
2017-May-28 01:29N 49°17' W 123°06'0 0.0
2017-May-28 00:59N 49°17' W 123°06'0 0.0
2017-May-28 00:29N 49°17' W 123°06'0 0.0
2017-May-27 23:59N 49°17' W 123°06'0 0.0
2017-May-27 23:29N 49°17' W 123°06'0 0.0
2017-May-27 22:59N 49°17' W 123°06'0 0.0
2017-May-27 22:29N 49°17' W 123°06'0 0.0
2017-May-27 21:59N 49°17' W 123°06'0 0.0
2017-May-27 21:29N 49°17' W 123°06'0 0.0
2017-May-27 20:59N 49°17' W 123°06'0 0.0
2017-May-27 20:29N 49°17' W 123°06'0 0.0
2017-May-27 19:59N 49°17' W 123°06'0 0.0
2017-May-27 19:29N 49°17' W 123°06'0 0.0
2017-May-27 18:56N 49°17' W 123°06'0 0.0
2017-May-27 18:17N 49°17' W 123°06'0 0.0
2017-May-27 17:59N 49°17' W 123°06'0 0.0
2017-May-27 17:29N 49°17' W 123°06'0 0.0
2017-May-27 16:59N 49°17' W 123°06'0 0.0
2017-May-27 16:29N 49°17' W 123°06'0 0.0
2017-May-27 15:59N 49°17' W 123°06'0 0.0
2017-May-27 15:29N 49°17' W 123°06'0 0.0
2017-May-27 14:59N 49°17' W 123°06'0 0.0
2017-May-27 14:29N 49°17' W 123°06'0 0.0
2017-May-27 13:29N 49°17' W 123°06'0 0.0
2017-May-27 13:00N 49°17' W 123°06'0 0.9
2017-May-27 12:30N 49°18' W 123°06'4 7.3
2017-May-27 12:00N 49°19' W 123°12'510.2
2017-May-27 11:30N 49°18' W 123°19'510.1
2017-May-27 11:00N 49°15' W 123°26'6920706.8
2017-May-27 11:00N 49°18' W 125°12'65134.4 040 / 91020.427.0 9.0 6.9 9.0
2017-May-27 10:30N 49°12' W 123°33'510.1
2017-May-27 10:00N 49°13' W 123°40'5 9.8
2017-May-27 09:30N 49°15' W 123°47'510.4
2017-May-27 09:00N 49°18' W 123°54'510.8
2017-May-27 08:30N 49°20' W 124°01'510.8
2017-May-27 08:00N 49°23' W 124°09'510.8
2017-May-27 07:30N 49°25' W 124°16'510.7
2017-May-27 07:00N 49°27' W 124°24'510.7
2017-May-27 06:30N 49°30' W 124°30'510.8
2017-May-27 06:00N 49°34' W 124°36'511.0
2017-May-27 05:30N 49°38' W 124°41'510.8
2017-May-27 05:00N 49°42' W 124°47'510.4
2017-May-27 04:30N 49°46' W 124°53'510.2
2017-May-27 04:00N 49°50' W 124°58'510.4
2017-May-27 03:30N 49°54' W 125°04'610.9
2017-May-27 03:00N 49°57' W 125°10'517314.2
2017-May-27 03:00N 50°48' W 125°18'4694.7 310 / 281018.127.0 9.5 6.3 9.0
2017-May-27 02:30N 50°02' W 125°13'612.6
2017-May-27 02:00N 50°07' W 125°19'611.3
2017-May-27 01:31N 50°12' W 125°22'815.4
2017-May-27 00:58N 50°20' W 125°26'915.3
2017-May-27 00:24N 50°22' W 125°40'1717.6
2017-May-26 23:26N 50°27' W 126°05'3014.9
2017-May-26 21:24N 50°39' W 126°49'3217.6
2017-May-26 19:35N 50°52' W 127°35'117.2
2017-May-26 19:30N 50°53' W 127°37'816.9
2017-May-26 19:00N 50°59' W 127°47'714.0
2017-May-26 18:31N 51°02' W 127°56'816.3
2017-May-26 18:01N 51°07' W 128°07'816.7
2017-May-26 17:31N 51°12' W 128°18'816.3
2017-May-26 17:01N 51°17' W 128°28'816.2
2017-May-26 16:31N 51°21' W 128°39'816.0
2017-May-26 16:00N 51°27' W 128°48'815.5
2017-May-26 15:30N 51°33' W 128°55'815.6
2017-May-26 15:01N 51°40' W 129°02'816.1
2017-May-26 14:30N 51°46' W 129°10'1817.8
2017-May-26 13:30N 52°01' W 129°26'5716.1
2017-May-26 10:00N 52°48' W 130°18'   310 / 281017.610.8 9.0 8.0 9.0
2017-May-23 12:00N 59°36' W 136°18'60 6.0 180 / 48999.510.8 7.5 6.4 7.0
2017-May-23 02:00N 58°36' W 136°06'20014.3 180 / 481000.210.8 7.5 7.5 7.0
2017-May-22 12:00N 58°30' W 142°30'60 3.2 080 / 48999.5 5.4 7.5 7.5 7.0
2017-May-21 17:00N 59°30' W 142°18'9315.5 080 / 48999.8 5.4 9.0 6.9 7.0
2017-May-21 11:00N 59°48' W 145°18'6020.0 080 / 371001.1 5.4 8.0 8.0 7.0
2017-May-21 08:00N 60°24' W 146°54'56 2.1 280 / 121015.110.8 7.0 5.9 9.0
2017-May-20 05:00N 60°54' W 148°30'28012.7 180 / 51015.810.8 7.0 4.7 7.0
2017-May-19 07:00N 58°42' W 140°18'128 8.0 200 / 121018.7 5.4 7.0 4.7 8.0
2017-May-18 15:00N 58°42' W 136°12'   170 / 191017.310.8 9.0 6.4 6.2

Dump ship's entire track history